sensor_id;sensor_type;location;lat;lon;timestamp;pressure;altitude;pressure_sealevel;temperature;humidity
1371;BME280;14306;49.942;11.570;2022-09-04T00:01:10;97578.34;;;15.55;96.95
1371;BME280;14306;49.942;11.570;2022-09-04T00:03:46;97585.66;;;15.42;96.55
1371;BME280;14306;49.942;11.570;2022-09-04T00:06:20;97586.66;;;15.29;96.82
1371;BME280;14306;49.942;11.570;2022-09-04T00:09:06;97591.75;;;15.39;97.03
1371;BME280;14306;49.942;11.570;2022-09-04T00:11:42;97593.38;;;15.40;97.09
1371;BME280;14306;49.942;11.570;2022-09-04T00:14:15;97591.47;;;15.32;97.11
1371;BME280;14306;49.942;11.570;2022-09-04T00:16:48;97588.59;;;15.29;97.33
1371;BME280;14306;49.942;11.570;2022-09-04T00:19:26;97592.44;;;15.28;96.93
1371;BME280;14306;49.942;11.570;2022-09-04T00:21:57;97591.50;;;15.24;96.76
1371;BME280;14306;49.942;11.570;2022-09-04T00:24:29;97596.34;;;15.18;96.91
1371;BME280;14306;49.942;11.570;2022-09-04T00:27:03;97597.50;;;15.17;96.98
1371;BME280;14306;49.942;11.570;2022-09-04T00:29:41;97584.91;;;15.25;96.96
1371;BME280;14306;49.942;11.570;2022-09-04T00:32:18;97598.78;;;15.11;96.59
1371;BME280;14306;49.942;11.570;2022-09-04T00:35:03;97591.09;;;15.13;97.21
1371;BME280;14306;49.942;11.570;2022-09-04T00:37:37;97597.59;;;15.29;97.76
1371;BME280;14306;49.942;11.570;2022-09-04T00:40:10;97594.03;;;15.37;97.35
1371;BME280;14306;49.942;11.570;2022-09-04T00:43:02;97601.25;;;15.42;97.93
1371;BME280;14306;49.942;11.570;2022-09-04T00:45:51;97595.78;;;15.42;97.44
1371;BME280;14306;49.942;11.570;2022-09-04T00:51:46;97606.31;;;15.14;97.59
1371;BME280;14306;49.942;11.570;2022-09-04T00:54:37;97609.38;;;15.13;97.19
1371;BME280;14306;49.942;11.570;2022-09-04T00:57:35;97615.47;;;15.10;97.49
1371;BME280;14306;49.942;11.570;2022-09-04T01:00:08;97616.94;;;15.07;97.27
1371;BME280;14306;49.942;11.570;2022-09-04T01:02:56;97614.91;;;14.96;97.35
1371;BME280;14306;49.942;11.570;2022-09-04T01:05:38;97620.38;;;14.96;98.44
1371;BME280;14306;49.942;11.570;2022-09-04T01:08:15;97621.53;;;14.86;99.07
1371;BME280;14306;49.942;11.570;2022-09-04T01:11:00;97620.22;;;14.92;98.46
1371;BME280;14306;49.942;11.570;2022-09-04T01:13:37;97622.81;;;14.89;98.82
1371;BME280;14306;49.942;11.570;2022-09-04T01:16:10;97620.69;;;14.94;98.21
1371;BME280;14306;49.942;11.570;2022-09-04T01:18:47;97620.75;;;15.15;97.69
1371;BME280;14306;49.942;11.570;2022-09-04T01:21:24;97623.88;;;14.96;97.27
1371;BME280;14306;49.942;11.570;2022-09-04T01:24:18;97627.41;;;14.97;97.80
1371;BME280;14306;49.942;11.570;2022-09-04T01:26:58;97627.22;;;15.02;97.43
1371;BME280;14306;49.942;11.570;2022-09-04T01:29:32;97630.25;;;15.09;97.21
1371;BME280;14306;49.942;11.570;2022-09-04T01:32:14;97633.97;;;15.04;97.52
1371;BME280;14306;49.942;11.570;2022-09-04T01:34:51;97631.56;;;15.03;97.62
1371;BME280;14306;49.942;11.570;2022-09-04T01:37:33;97629.94;;;15.10;97.64
1371;BME280;14306;49.942;11.570;2022-09-04T01:40:38;97631.19;;;15.13;97.73
1371;BME280;14306;49.942;11.570;2022-09-04T01:43:11;97636.84;;;15.08;98.11
1371;BME280;14306;49.942;11.570;2022-09-04T01:46:02;97633.00;;;15.00;98.21
1371;BME280;14306;49.942;11.570;2022-09-04T01:48:40;97631.75;;;14.98;97.93
1371;BME280;14306;49.942;11.570;2022-09-04T01:51:19;97636.91;;;14.91;97.90
1371;BME280;14306;49.942;11.570;2022-09-04T01:54:02;97647.34;;;14.80;97.45
1371;BME280;14306;49.942;11.570;2022-09-04T01:56:39;97641.59;;;14.82;97.75
1371;BME280;14306;49.942;11.570;2022-09-04T01:59:17;97640.63;;;14.86;98.50
1371;BME280;14306;49.942;11.570;2022-09-04T02:01:52;97651.69;;;14.81;98.31
1371;BME280;14306;49.942;11.570;2022-09-04T02:04:27;97649.13;;;14.76;97.54
1371;BME280;14306;49.942;11.570;2022-09-04T02:07:04;97644.00;;;14.83;97.62
1371;BME280;14306;49.942;11.570;2022-09-04T02:09:45;97639.63;;;14.82;97.76
1371;BME280;14306;49.942;11.570;2022-09-04T02:12:26;97649.13;;;14.76;97.91
1371;BME280;14306;49.942;11.570;2022-09-04T02:15:09;97647.81;;;14.82;98.49
1371;BME280;14306;49.942;11.570;2022-09-04T02:17:41;97649.44;;;14.83;98.40
1371;BME280;14306;49.942;11.570;2022-09-04T02:20:20;97654.91;;;14.83;98.24
1371;BME280;14306;49.942;11.570;2022-09-04T02:22:58;97646.09;;;14.78;97.75
1371;BME280;14306;49.942;11.570;2022-09-04T02:25:35;97647.06;;;14.73;97.39
1371;BME280;14306;49.942;11.570;2022-09-04T02:28:19;97655.09;;;14.61;97.84
1371;BME280;14306;49.942;11.570;2022-09-04T02:30:55;97657.50;;;14.63;98.17
1371;BME280;14306;49.942;11.570;2022-09-04T02:33:35;97656.72;;;14.54;97.57
1371;BME280;14306;49.942;11.570;2022-09-04T02:36:09;97660.41;;;14.58;98.02
1371;BME280;14306;49.942;11.570;2022-09-04T02:38:46;97660.06;;;14.59;97.83
1371;BME280;14306;49.942;11.570;2022-09-04T02:41:23;97658.78;;;14.57;98.31
1371;BME280;14306;49.942;11.570;2022-09-04T02:44:04;97668.09;;;14.56;97.89
1371;BME280;14306;49.942;11.570;2022-09-04T02:46:46;97667.94;;;14.52;97.92
1371;BME280;14306;49.942;11.570;2022-09-04T02:49:23;97672.59;;;14.52;98.11
1371;BME280;14306;49.942;11.570;2022-09-04T02:52:02;97672.13;;;14.41;98.10
1371;BME280;14306;49.942;11.570;2022-09-04T02:54:54;97666.50;;;14.38;97.50
1371;BME280;14306;49.942;11.570;2022-09-04T02:57:37;97667.47;;;14.25;97.47
1371;BME280;14306;49.942;11.570;2022-09-04T03:00:10;97667.16;;;14.26;97.96
1371;BME280;14306;49.942;11.570;2022-09-04T03:02:50;97672.63;;;14.35;98.35
1371;BME280;14306;49.942;11.570;2022-09-04T03:05:23;97671.94;;;14.38;98.34
1371;BME280;14306;49.942;11.570;2022-09-04T03:07:57;97673.56;;;14.39;98.43
1371;BME280;14306;49.942;11.570;2022-09-04T03:10:29;97675.16;;;14.48;98.13
1371;BME280;14306;49.942;11.570;2022-09-04T03:13:01;97674.19;;;14.61;97.99
1371;BME280;14306;49.942;11.570;2022-09-04T03:15:38;97672.91;;;14.67;98.20
1371;BME280;14306;49.942;11.570;2022-09-04T03:18:15;97675.09;;;14.82;98.48
1371;BME280;14306;49.942;11.570;2022-09-04T03:20:50;97669.31;;;14.84;98.81
1371;BME280;14306;49.942;11.570;2022-09-04T03:23:23;97668.16;;;14.93;99.05
1371;BME280;14306;49.942;11.570;2022-09-04T03:26:21;97668.47;;;15.00;98.44
1371;BME280;14306;49.942;11.570;2022-09-04T03:29:07;97677.66;;;14.96;99.23
1371;BME280;14306;49.942;11.570;2022-09-04T03:31:44;97683.88;;;15.05;98.76
1371;BME280;14306;49.942;11.570;2022-09-04T03:34:25;97679.03;;;15.10;98.91
1371;BME280;14306;49.942;11.570;2022-09-04T03:37:09;97680.13;;;15.18;98.68
1371;BME280;14306;49.942;11.570;2022-09-04T03:39:48;97681.06;;;15.22;99.23
1371;BME280;14306;49.942;11.570;2022-09-04T03:42:28;97685.25;;;15.19;99.08
1371;BME280;14306;49.942;11.570;2022-09-04T03:45:09;97686.84;;;15.29;99.54
1371;BME280;14306;49.942;11.570;2022-09-04T03:47:49;97686.50;;;15.30;99.40
1371;BME280;14306;49.942;11.570;2022-09-04T03:50:27;97688.09;;;15.31;99.25
1371;BME280;14306;49.942;11.570;2022-09-04T03:53:03;97687.66;;;15.29;99.00
1371;BME280;14306;49.942;11.570;2022-09-04T03:55:51;97693.88;;;15.30;99.07
1371;BME280;14306;49.942;11.570;2022-09-04T03:58:27;97688.78;;;15.28;99.20
1371;BME280;14306;49.942;11.570;2022-09-04T04:01:09;97688.25;;;15.43;99.30
1371;BME280;14306;49.942;11.570;2022-09-04T04:03:50;97695.03;;;15.37;99.05
1371;BME280;14306;49.942;11.570;2022-09-04T04:06:28;97694.06;;;15.42;99.27
1371;BME280;14306;49.942;11.570;2022-09-04T04:09:12;97698.16;;;15.57;99.07
1371;BME280;14306;49.942;11.570;2022-09-04T04:12:05;97696.88;;;15.54;98.66
1371;BME280;14306;49.942;11.570;2022-09-04T04:14:50;97697.78;;;15.20;100.00
1371;BME280;14306;49.942;11.570;2022-09-04T04:17:42;97703.34;;;15.41;99.84
1371;BME280;14306;49.942;11.570;2022-09-04T04:20:20;97704.41;;;15.57;99.38
1371;BME280;14306;49.942;11.570;2022-09-04T04:23:04;97707.97;;;15.49;99.42
1371;BME280;14306;49.942;11.570;2022-09-04T04:26:04;97707.75;;;15.63;99.30
1371;BME280;14306;49.942;11.570;2022-09-04T04:29:05;97714.34;;;15.62;98.74
1371;BME280;14306;49.942;11.570;2022-09-04T04:31:49;97717.03;;;15.70;98.82
1371;BME280;14306;49.942;11.570;2022-09-04T04:34:49;97715.13;;;15.71;98.76
1371;BME280;14306;49.942;11.570;2022-09-04T04:37:31;97722.19;;;15.72;98.82
1371;BME280;14306;49.942;11.570;2022-09-04T04:40:14;97714.44;;;15.74;98.79
1371;BME280;14306;49.942;11.570;2022-09-04T04:42:50;97725.03;;;15.75;99.05
1371;BME280;14306;49.942;11.570;2022-09-04T04:45:27;97726.69;;;15.68;98.82
1371;BME280;14306;49.942;11.570;2022-09-04T04:48:33;97728.28;;;15.69;99.04
1371;BME280;14306;49.942;11.570;2022-09-04T04:51:14;97731.69;;;15.57;99.03
1371;BME280;14306;49.942;11.570;2022-09-04T04:53:50;97730.44;;;15.54;99.44
1371;BME280;14306;49.942;11.570;2022-09-04T04:56:28;97736.38;;;15.57;99.62
1371;BME280;14306;49.942;11.570;2022-09-04T04:59:07;97751.16;;;15.56;99.36
1371;BME280;14306;49.942;11.570;2022-09-04T05:01:51;97742.75;;;15.69;99.43
1371;BME280;14306;49.942;11.570;2022-09-04T05:04:30;97746.69;;;15.51;99.66
1371;BME280;14306;49.942;11.570;2022-09-04T05:07:06;97750.16;;;15.60;99.81
1371;BME280;14306;49.942;11.570;2022-09-04T05:09:43;97753.81;;;15.73;99.63
1371;BME280;14306;49.942;11.570;2022-09-04T05:12:22;97747.41;;;15.69;99.55
1371;BME280;14306;49.942;11.570;2022-09-04T05:14:57;97750.09;;;15.77;99.39
1371;BME280;14306;49.942;11.570;2022-09-04T05:17:34;97754.16;;;15.63;99.51
1371;BME280;14306;49.942;11.570;2022-09-04T05:20:25;97755.94;;;15.67;99.73
1371;BME280;14306;49.942;11.570;2022-09-04T05:23:04;97763.78;;;15.69;99.42
1371;BME280;14306;49.942;11.570;2022-09-04T05:25:37;97770.63;;;15.83;99.41
1371;BME280;14306;49.942;11.570;2022-09-04T05:28:20;97766.59;;;15.89;99.35
1371;BME280;14306;49.942;11.570;2022-09-04T05:30:56;97770.59;;;15.92;99.18
1371;BME280;14306;49.942;11.570;2022-09-04T05:33:30;97773.94;;;15.97;99.57
1371;BME280;14306;49.942;11.570;2022-09-04T05:36:07;97772.47;;;16.00;99.62
1371;BME280;14306;49.942;11.570;2022-09-04T05:38:43;97780.06;;;15.94;99.78
1371;BME280;14306;49.942;11.570;2022-09-04T05:41:32;97781.28;;;16.05;99.25
1371;BME280;14306;49.942;11.570;2022-09-04T05:44:15;97785.31;;;15.99;98.42
1371;BME280;14306;49.942;11.570;2022-09-04T05:46:52;97791.63;;;15.91;99.37
1371;BME280;14306;49.942;11.570;2022-09-04T05:49:39;97791.16;;;15.98;99.22
1371;BME280;14306;49.942;11.570;2022-09-04T05:52:30;97789.44;;;16.14;99.52
1371;BME280;14306;49.942;11.570;2022-09-04T05:55:26;97795.66;;;16.23;99.32
1371;BME280;14306;49.942;11.570;2022-09-04T05:58:23;97796.16;;;16.25;98.50
1371;BME280;14306;49.942;11.570;2022-09-04T06:01:08;97803.94;;;16.35;98.60
1371;BME280;14306;49.942;11.570;2022-09-04T06:03:56;97802.88;;;16.27;98.41
1371;BME280;14306;49.942;11.570;2022-09-04T06:06:35;97811.22;;;16.31;98.61
1371;BME280;14306;49.942;11.570;2022-09-04T06:09:25;97808.25;;;16.44;98.58
1371;BME280;14306;49.942;11.570;2022-09-04T06:12:12;97802.84;;;16.56;98.39
1371;BME280;14306;49.942;11.570;2022-09-04T06:17:51;97814.16;;;16.75;98.90
1371;BME280;14306;49.942;11.570;2022-09-04T06:20:31;97812.09;;;16.72;98.71
1371;BME280;14306;49.942;11.570;2022-09-04T06:23:24;97819.47;;;16.51;97.88
1371;BME280;14306;49.942;11.570;2022-09-04T06:26:06;97824.63;;;16.73;98.51
1371;BME280;14306;49.942;11.570;2022-09-04T06:28:54;97835.38;;;16.99;98.40
1371;BME280;14306;49.942;11.570;2022-09-04T06:35:05;97843.03;;;17.05;97.70
1371;BME280;14306;49.942;11.570;2022-09-04T06:37:45;97839.47;;;17.25;98.32
1371;BME280;14306;49.942;11.570;2022-09-04T06:40:29;97841.44;;;17.25;96.94
1371;BME280;14306;49.942;11.570;2022-09-04T06:43:10;97849.72;;;17.16;97.42
1371;BME280;14306;49.942;11.570;2022-09-04T06:45:50;97850.25;;;17.10;97.00
1371;BME280;14306;49.942;11.570;2022-09-04T06:48:38;97847.75;;;17.05;96.94
1371;BME280;14306;49.942;11.570;2022-09-04T06:51:20;97848.09;;;17.36;97.08
1371;BME280;14306;49.942;11.570;2022-09-04T06:53:59;97846.81;;;17.54;95.50
1371;BME280;14306;49.942;11.570;2022-09-04T06:56:45;97853.94;;;17.67;95.01
1371;BME280;14306;49.942;11.570;2022-09-04T06:59:31;97850.31;;;17.42;95.15
1371;BME280;14306;49.942;11.570;2022-09-04T07:02:18;97846.41;;;17.76;94.79
1371;BME280;14306;49.942;11.570;2022-09-04T07:05:01;97850.69;;;17.53;94.79
1371;BME280;14306;49.942;11.570;2022-09-04T07:07:36;97848.47;;;17.79;94.58
1371;BME280;14306;49.942;11.570;2022-09-04T07:10:12;97853.91;;;18.23;94.25
1371;BME280;14306;49.942;11.570;2022-09-04T07:13:09;97860.47;;;18.43;92.54
1371;BME280;14306;49.942;11.570;2022-09-04T07:16:02;97870.59;;;18.06;91.16
1371;BME280;14306;49.942;11.570;2022-09-04T07:18:45;97870.38;;;18.47;90.61
1371;BME280;14306;49.942;11.570;2022-09-04T07:21:23;97874.06;;;18.75;89.77
1371;BME280;14306;49.942;11.570;2022-09-04T07:24:01;97875.88;;;18.47;87.57
1371;BME280;14306;49.942;11.570;2022-09-04T07:26:38;97876.69;;;18.60;91.44
1371;BME280;14306;49.942;11.570;2022-09-04T07:29:27;97879.34;;;18.44;88.21
1371;BME280;14306;49.942;11.570;2022-09-04T07:32:02;97883.75;;;18.61;87.77
1371;BME280;14306;49.942;11.570;2022-09-04T07:34:39;97886.53;;;18.73;87.26
1371;BME280;14306;49.942;11.570;2022-09-04T07:37:17;97892.38;;;19.35;88.03
1371;BME280;14306;49.942;11.570;2022-09-04T07:39:59;97890.22;;;19.56;84.33
1371;BME280;14306;49.942;11.570;2022-09-04T07:42:38;97898.41;;;19.41;85.87
1371;BME280;14306;49.942;11.570;2022-09-04T07:45:16;97897.31;;;19.17;84.32
1371;BME280;14306;49.942;11.570;2022-09-04T07:47:53;97895.94;;;19.11;83.55
1371;BME280;14306;49.942;11.570;2022-09-04T07:50:28;97907.44;;;19.41;84.74
1371;BME280;14306;49.942;11.570;2022-09-04T07:53:11;97917.69;;;19.84;82.94
1371;BME280;14306;49.942;11.570;2022-09-04T07:55:44;97910.69;;;20.14;82.62
1371;BME280;14306;49.942;11.570;2022-09-04T07:58:31;97914.03;;;20.85;79.58
1371;BME280;14306;49.942;11.570;2022-09-04T08:01:26;97914.94;;;20.73;78.71
1371;BME280;14306;49.942;11.570;2022-09-04T08:04:12;97919.22;;;20.40;79.95
1371;BME280;14306;49.942;11.570;2022-09-04T08:06:49;97922.75;;;20.40;80.34
1371;BME280;14306;49.942;11.570;2022-09-04T08:09:42;97923.31;;;20.46;78.99
1371;BME280;14306;49.942;11.570;2022-09-04T08:12:23;97923.13;;;20.23;80.08
1371;BME280;14306;49.942;11.570;2022-09-04T08:15:08;97930.06;;;20.33;79.16
1371;BME280;14306;49.942;11.570;2022-09-04T08:17:51;97945.41;;;20.06;80.85
1371;BME280;14306;49.942;11.570;2022-09-04T08:20:39;97943.44;;;20.19;80.68
1371;BME280;14306;49.942;11.570;2022-09-04T08:23:22;97935.63;;;20.67;78.49
1371;BME280;14306;49.942;11.570;2022-09-04T08:26:00;97946.22;;;20.50;79.07
1371;BME280;14306;49.942;11.570;2022-09-04T08:28:50;97945.91;;;20.24;79.75
1371;BME280;14306;49.942;11.570;2022-09-04T08:31:28;97947.19;;;20.42;80.10
1371;BME280;14306;49.942;11.570;2022-09-04T08:34:25;97952.94;;;21.14;77.03
1371;BME280;14306;49.942;11.570;2022-09-04T08:37:02;97956.25;;;21.73;74.64
1371;BME280;14306;49.942;11.570;2022-09-04T08:39:42;97948.28;;;22.51;74.56
1371;BME280;14306;49.942;11.570;2022-09-04T08:42:44;97949.28;;;22.85;69.73
1371;BME280;14306;49.942;11.570;2022-09-04T08:45:36;97954.78;;;23.60;69.59
1371;BME280;14306;49.942;11.570;2022-09-04T08:51:51;97954.97;;;24.07;65.95
1371;BME280;14306;49.942;11.570;2022-09-04T08:54:55;97958.63;;;24.94;63.55
1371;BME280;14306;49.942;11.570;2022-09-04T08:57:48;97947.66;;;25.73;62.06
1371;BME280;14306;49.942;11.570;2022-09-04T09:00:28;97946.38;;;25.49;60.32
1371;BME280;14306;49.942;11.570;2022-09-04T09:03:29;97947.88;;;26.15;57.97
1371;BME280;14306;49.942;11.570;2022-09-04T09:06:24;97940.47;;;27.14;55.18
1371;BME280;14306;49.942;11.570;2022-09-04T09:12:39;97946.94;;;28.21;50.76
1371;BME280;14306;49.942;11.570;2022-09-04T09:15:33;97944.16;;;31.14;43.82
1371;BME280;14306;49.942;11.570;2022-09-04T09:18:26;97944.50;;;32.60;42.74
1371;BME280;14306;49.942;11.570;2022-09-04T09:21:06;97950.63;;;30.88;43.23
1371;BME280;14306;49.942;11.570;2022-09-04T09:23:54;97951.38;;;31.38;42.86
1371;BME280;14306;49.942;11.570;2022-09-04T09:26:28;97957.91;;;31.32;41.03
1371;BME280;14306;49.942;11.570;2022-09-04T09:35:53;97958.44;;;33.31;37.58
1371;BME280;14306;49.942;11.570;2022-09-04T09:38:56;97954.78;;;34.73;35.80
1371;BME280;14306;49.942;11.570;2022-09-04T09:41:43;97957.56;;;33.34;36.91
1371;BME280;14306;49.942;11.570;2022-09-04T09:44:38;97957.41;;;33.70;35.80
1371;BME280;14306;49.942;11.570;2022-09-04T09:47:41;97955.09;;;32.88;37.54
1371;BME280;14306;49.942;11.570;2022-09-04T09:50:55;97956.72;;;34.23;34.22
1371;BME280;14306;49.942;11.570;2022-09-04T09:54:04;97949.44;;;33.97;34.34
1371;BME280;14306;49.942;11.570;2022-09-04T09:57:07;97950.25;;;31.78;38.41
1371;BME280;14306;49.942;11.570;2022-09-04T10:00:09;97955.47;;;30.28;41.75
1371;BME280;14306;49.942;11.570;2022-09-04T10:03:13;97956.50;;;29.77;42.97
1371;BME280;14306;49.942;11.570;2022-09-04T10:06:26;97958.09;;;28.86;45.11
1371;BME280;14306;49.942;11.570;2022-09-04T10:09:21;97944.97;;;28.15;48.04
1371;BME280;14306;49.942;11.570;2022-09-04T10:15:21;97935.97;;;32.64;37.34
1371;BME280;14306;49.942;11.570;2022-09-04T10:18:16;97940.59;;;33.82;35.39
1371;BME280;14306;49.942;11.570;2022-09-04T10:21:07;97938.75;;;33.47;35.06
1371;BME280;14306;49.942;11.570;2022-09-04T10:24:03;97934.38;;;33.14;36.10
1371;BME280;14306;49.942;11.570;2022-09-04T10:27:14;97936.47;;;34.28;34.13
1371;BME280;14306;49.942;11.570;2022-09-04T10:30:05;97928.88;;;34.41;33.97
1371;BME280;14306;49.942;11.570;2022-09-04T10:32:54;97935.03;;;35.70;31.28
1371;BME280;14306;49.942;11.570;2022-09-04T10:35:47;97933.78;;;32.91;35.73
1371;BME280;14306;49.942;11.570;2022-09-04T10:38:28;97929.84;;;32.53;36.72
1371;BME280;14306;49.942;11.570;2022-09-04T10:41:25;97924.63;;;31.96;37.70
1371;BME280;14306;49.942;11.570;2022-09-04T10:44:23;97920.63;;;32.88;36.61
1371;BME280;14306;49.942;11.570;2022-09-04T10:47:03;97912.75;;;34.41;33.26
1371;BME280;14306;49.942;11.570;2022-09-04T10:52:59;97911.50;;;34.67;32.74
1371;BME280;14306;49.942;11.570;2022-09-04T10:55:54;97918.41;;;34.13;33.76
1371;BME280;14306;49.942;11.570;2022-09-04T10:58:33;97913.66;;;34.63;33.75
1371;BME280;14306;49.942;11.570;2022-09-04T11:01:38;97920.00;;;34.14;34.04
1371;BME280;14306;49.942;11.570;2022-09-04T11:04:22;97916.41;;;33.56;34.75
1371;BME280;14306;49.942;11.570;2022-09-04T11:07:16;97916.69;;;32.50;36.07
1371;BME280;14306;49.942;11.570;2022-09-04T11:10:25;97907.22;;;31.23;37.81
1371;BME280;14306;49.942;11.570;2022-09-04T11:16:30;97913.50;;;30.31;41.12
1371;BME280;14306;49.942;11.570;2022-09-04T11:19:26;97915.50;;;30.57;40.17
1371;BME280;14306;49.942;11.570;2022-09-04T11:22:32;97912.66;;;30.01;41.14
1371;BME280;14306;49.942;11.570;2022-09-04T11:25:29;97911.19;;;28.71;44.46
1371;BME280;14306;49.942;11.570;2022-09-04T11:31:26;97907.78;;;28.46;43.40
1371;BME280;14306;49.942;11.570;2022-09-04T11:34:22;97903.66;;;28.03;44.56
1371;BME280;14306;49.942;11.570;2022-09-04T11:43:21;97901.44;;;27.56;46.50
1371;BME280;14306;49.942;11.570;2022-09-04T11:46:05;97894.34;;;28.27;45.06
1371;BME280;14306;49.942;11.570;2022-09-04T11:49:04;97901.06;;;29.35;42.80
1371;BME280;14306;49.942;11.570;2022-09-04T11:51:59;97896.72;;;29.31;42.31
1371;BME280;14306;49.942;11.570;2022-09-04T11:54:53;97905.47;;;29.70;41.15
1371;BME280;14306;49.942;11.570;2022-09-04T11:57:32;97906.66;;;28.33;43.04
1371;BME280;14306;49.942;11.570;2022-09-04T12:00:09;97902.94;;;27.78;43.47
1371;BME280;14306;49.942;11.570;2022-09-04T12:06:12;97896.38;;;27.02;44.94
1371;BME280;14306;49.942;11.570;2022-09-04T12:08:56;97898.75;;;27.21;45.15
1371;BME280;14306;49.942;11.570;2022-09-04T12:12:01;97904.06;;;27.94;43.67
1371;BME280;14306;49.942;11.570;2022-09-04T12:15:03;97900.38;;;28.18;42.96
1371;BME280;14306;49.942;11.570;2022-09-04T12:18:28;97898.28;;;27.50;43.42
1371;BME280;14306;49.942;11.570;2022-09-04T12:31:06;97900.31;;;27.25;43.68
1371;BME280;14306;49.942;11.570;2022-09-04T12:33:56;97904.69;;;27.30;44.45
1371;BME280;14306;49.942;11.570;2022-09-04T12:42:51;97901.09;;;27.40;44.58
1371;BME280;14306;49.942;11.570;2022-09-04T12:45:28;97893.91;;;27.39;44.52
1371;BME280;14306;49.942;11.570;2022-09-04T12:48:06;97909.47;;;26.87;45.41
1371;BME280;14306;49.942;11.570;2022-09-04T12:50:46;97906.28;;;26.54;46.12
1371;BME280;14306;49.942;11.570;2022-09-04T12:53:36;97895.16;;;26.96;45.59
1371;BME280;14306;49.942;11.570;2022-09-04T12:56:24;97897.53;;;27.01;45.98
1371;BME280;14306;49.942;11.570;2022-09-04T12:59:07;97899.34;;;27.91;44.25
1371;BME280;14306;49.942;11.570;2022-09-04T13:01:52;97895.19;;;28.20;44.28
1371;BME280;14306;49.942;11.570;2022-09-04T13:04:28;97898.66;;;28.38;44.24
1371;BME280;14306;49.942;11.570;2022-09-04T13:07:13;97898.47;;;28.70;43.36
1371;BME280;14306;49.942;11.570;2022-09-04T13:09:54;97899.69;;;28.00;44.84
1371;BME280;14306;49.942;11.570;2022-09-04T13:12:32;97898.25;;;27.54;44.44
1371;BME280;14306;49.942;11.570;2022-09-04T13:15:21;97896.38;;;26.74;46.37
1371;BME280;14306;49.942;11.570;2022-09-04T13:18:08;97889.97;;;27.40;45.25
1371;BME280;14306;49.942;11.570;2022-09-04T13:20:45;97893.03;;;27.66;44.70
1371;BME280;14306;49.942;11.570;2022-09-04T13:23:35;97903.44;;;27.52;44.34
1371;BME280;14306;49.942;11.570;2022-09-04T13:26:26;97896.75;;;26.97;45.63
1371;BME280;14306;49.942;11.570;2022-09-04T13:29:08;97905.09;;;27.28;45.70
1371;BME280;14306;49.942;11.570;2022-09-04T13:32:14;97897.97;;;26.85;45.58
1371;BME280;14306;49.942;11.570;2022-09-04T13:35:06;97899.13;;;27.09;46.15
1371;BME280;14306;49.942;11.570;2022-09-04T13:37:58;97891.56;;;27.27;45.77
1371;BME280;14306;49.942;11.570;2022-09-04T13:43:33;97899.91;;;26.29;46.97
1371;BME280;14306;49.942;11.570;2022-09-04T13:46:09;97897.56;;;26.66;46.35
1371;BME280;14306;49.942;11.570;2022-09-04T13:48:42;97901.94;;;26.70;46.26
1371;BME280;14306;49.942;11.570;2022-09-04T13:51:15;97898.75;;;26.93;46.14
1371;BME280;14306;49.942;11.570;2022-09-04T13:53:57;97899.97;;;26.71;46.54
1371;BME280;14306;49.942;11.570;2022-09-04T13:56:34;97896.38;;;26.81;46.41
1371;BME280;14306;49.942;11.570;2022-09-04T13:59:07;97895.59;;;26.84;46.40
1371;BME280;14306;49.942;11.570;2022-09-04T14:01:40;97898.34;;;26.94;46.18
1371;BME280;14306;49.942;11.570;2022-09-04T14:04:13;97899.97;;;26.74;46.12
1371;BME280;14306;49.942;11.570;2022-09-04T14:06:43;97899.56;;;26.69;46.41
1371;BME280;14306;49.942;11.570;2022-09-04T14:09:11;97907.13;;;26.61;46.32
1371;BME280;14306;49.942;11.570;2022-09-04T14:12:20;97897.56;;;26.73;46.25
1371;BME280;14306;49.942;11.570;2022-09-04T14:18:17;97906.66;;;26.49;46.51
1371;BME280;14306;49.942;11.570;2022-09-04T14:20:51;97912.22;;;26.42;46.84
1371;BME280;14306;49.942;11.570;2022-09-04T14:23:35;97906.63;;;26.17;47.74
1371;BME280;14306;49.942;11.570;2022-09-04T14:26:09;97908.69;;;26.59;46.56
1371;BME280;14306;49.942;11.570;2022-09-04T14:28:47;97898.34;;;26.63;46.14
1371;BME280;14306;49.942;11.570;2022-09-04T14:31:24;97903.09;;;26.45;46.72
1371;BME280;14306;49.942;11.570;2022-09-04T14:34:22;97903.13;;;26.62;45.73
1371;BME280;14306;49.942;11.570;2022-09-04T14:36:58;97895.19;;;26.78;45.73
1371;BME280;14306;49.942;11.570;2022-09-04T14:39:36;97897.19;;;26.64;45.58
1371;BME280;14306;49.942;11.570;2022-09-04T14:45:10;97908.97;;;26.08;46.75
1371;BME280;14306;49.942;11.570;2022-09-04T14:47:43;97911.41;;;26.31;46.92
1371;BME280;14306;49.942;11.570;2022-09-04T14:50:22;97910.25;;;26.56;46.69
1371;BME280;14306;49.942;11.570;2022-09-04T14:52:57;97901.53;;;26.86;45.58
1371;BME280;14306;49.942;11.570;2022-09-04T14:55:29;97903.13;;;26.87;45.61
1371;BME280;14306;49.942;11.570;2022-09-04T14:58:03;97894.78;;;26.90;45.37
1371;BME280;14306;49.942;11.570;2022-09-04T15:00:53;97904.69;;;27.12;44.75
1371;BME280;14306;49.942;11.570;2022-09-04T15:03:27;97899.13;;;26.91;45.18
1371;BME280;14306;49.942;11.570;2022-09-04T15:05:59;97895.94;;;27.24;44.49
1371;BME280;14306;49.942;11.570;2022-09-04T15:08:32;97894.72;;;27.18;45.34
1371;BME280;14306;49.942;11.570;2022-09-04T15:11:07;97899.50;;;27.32;44.91
1371;BME280;14306;49.942;11.570;2022-09-04T15:13:44;97897.88;;;27.45;44.31
1371;BME280;14306;49.942;11.570;2022-09-04T15:16:27;97901.78;;;27.72;43.76
1371;BME280;14306;49.942;11.570;2022-09-04T15:19:04;97896.56;;;27.81;43.39
1371;BME280;14306;49.942;11.570;2022-09-04T15:21:41;97901.41;;;27.66;43.78
1371;BME280;14306;49.942;11.570;2022-09-04T15:24:16;97901.81;;;27.61;43.72
1371;BME280;14306;49.942;11.570;2022-09-04T15:26:55;97906.91;;;27.77;43.43
1371;BME280;14306;49.942;11.570;2022-09-04T15:29:31;97908.84;;;27.97;43.28
1371;BME280;14306;49.942;11.570;2022-09-04T15:32:04;97911.66;;;27.94;43.52
1371;BME280;14306;49.942;11.570;2022-09-04T15:34:39;97917.69;;;27.75;43.82
1371;BME280;14306;49.942;11.570;2022-09-04T15:37:10;97910.75;;;28.14;42.94